Terminal Aerodrome Forecast
Issued by NWS Wilmington, OH

Current Version | Previous Version | Graphics & Text | Print | Product List | Glossary On
Versions: 1 2 3 4 5 6 7 8 9 10 11 12 13 14 15 16 17 18 19
291
FTUS41 KILN 241136
TAFILN
TAF
KILN 241136Z 2412/2512 20012KT P6SM BKN150 WS020/22045KT
     FM241500 21015G23KT P6SM BKN040
     FM242300 21013KT P6SM BKN050
     FM250000 20009KT P6SM BKN090
     FM250900 19009KT P6SM OVC080 WS020/22050KT=

USA.gov is the U.S. government's official web portal to all federal, state and local government web resources and services.